createdAt,value
2022-10-14T00:01:10.789Z,6.60
2022-10-14T00:03:13.400Z,6.30
2022-10-14T00:05:16.156Z,5.97
2022-10-14T00:07:19.094Z,7.90
2022-10-14T00:09:23.401Z,6.63
2022-10-14T00:11:27.829Z,6.40
2022-10-14T00:13:30.473Z,6.85
2022-10-14T00:15:33.111Z,5.82
2022-10-14T00:17:36.821Z,6.60
2022-10-14T00:19:39.408Z,7.45
2022-10-14T00:21:44.809Z,6.00
2022-10-14T00:23:47.794Z,6.18
2022-10-14T00:25:52.103Z,6.32
2022-10-14T00:27:54.926Z,6.07
2022-10-14T00:29:57.518Z,5.68
2022-10-14T00:32:00.153Z,6.05
2022-10-14T00:34:03.119Z,6.78
2022-10-14T00:36:07.678Z,6.03
2022-10-14T00:38:10.274Z,6.10
2022-10-14T00:40:14.168Z,6.85
2022-10-14T00:42:18.288Z,5.50
2022-10-14T00:44:58.274Z,6.13
2022-10-14T00:47:00.931Z,5.50
2022-10-14T00:49:08.778Z,6.75
2022-10-14T00:51:11.780Z,6.00
2022-10-14T00:53:15.750Z,5.82
2022-10-14T00:55:19.744Z,5.38
2022-10-14T00:57:26.099Z,5.80
2022-10-14T00:59:28.786Z,6.18
2022-10-14T01:01:31.511Z,6.43
2022-10-14T01:03:35.042Z,6.55
2022-10-14T01:05:46.918Z,6.43
2022-10-14T01:08:03.421Z,6.63
2022-10-14T01:10:12.826Z,7.25
2022-10-14T01:12:30.038Z,7.47
2022-10-14T01:14:41.904Z,6.68
2022-10-14T01:16:53.426Z,6.38
2022-10-14T01:19:17.407Z,6.90
2022-10-14T01:21:28.116Z,5.78
2022-10-14T01:24:06.731Z,6.43
2022-10-14T01:26:41.553Z,5.78
2022-10-14T01:28:55.887Z,6.22
2022-10-14T01:31:04.465Z,6.22
2022-10-14T01:33:12.737Z,5.78
2022-10-14T01:35:24.938Z,6.80
2022-10-14T01:37:31.166Z,6.38
2022-10-14T01:39:39.145Z,7.03
2022-10-14T01:41:46.473Z,6.35
2022-10-14T01:43:51.498Z,6.20
2022-10-14T01:45:56.118Z,7.00
2022-10-14T01:48:02.501Z,6.63
2022-10-14T01:50:11.192Z,7.05
2022-10-14T01:52:20.013Z,6.72
2022-10-14T01:54:27.197Z,6.30
2022-10-14T01:56:31.945Z,6.25
2022-10-14T01:58:37.391Z,6.50
2022-10-14T02:00:40.027Z,6.47
2022-10-14T02:02:42.848Z,6.30
2022-10-14T02:04:46.836Z,6.32
2022-10-14T02:06:54.275Z,6.63
2022-10-14T02:09:09.281Z,5.90
2022-10-14T02:11:15.617Z,6.50
2022-10-14T02:13:33.670Z,6.60
2022-10-14T02:15:48.930Z,7.10
2022-10-14T02:17:57.071Z,6.80
2022-10-14T02:20:05.912Z,6.45
2022-10-14T02:22:16.199Z,6.63
2022-10-14T02:24:23.507Z,7.15
2022-10-14T02:26:28.338Z,7.07
2022-10-14T02:28:32.725Z,7.03
2022-10-14T02:30:41.571Z,7.40
2022-10-14T02:32:46.678Z,6.22
2022-10-14T02:34:55.089Z,6.70
2022-10-14T02:37:00.567Z,6.45
2022-10-14T02:39:04.758Z,6.97
2022-10-14T02:41:13.106Z,6.80
2022-10-14T02:43:15.893Z,6.43
2022-10-14T02:45:19.640Z,6.25
2022-10-14T02:47:22.806Z,7.10
2022-10-14T02:49:25.461Z,6.90
2022-10-14T02:51:28.363Z,7.35
2022-10-14T02:53:32.469Z,6.97
2022-10-14T02:55:35.119Z,7.25
2022-10-14T02:57:37.797Z,6.47
2022-10-14T02:59:40.625Z,7.40
2022-10-14T03:01:43.328Z,7.00
2022-10-14T03:03:46.262Z,7.65
2022-10-14T03:05:49.100Z,7.93
2022-10-14T03:07:51.713Z,7.55
2022-10-14T03:09:55.721Z,6.53
2022-10-14T03:11:58.307Z,8.05
2022-10-14T03:14:00.964Z,8.35
2022-10-14T03:16:03.579Z,7.40
2022-10-14T03:18:06.300Z,7.88
2022-10-14T03:20:09.923Z,7.90
2022-10-14T03:22:12.578Z,7.93
2022-10-14T03:24:15.203Z,7.85
2022-10-14T03:26:19.410Z,7.85
2022-10-14T03:28:22.081Z,7.45
2022-10-14T03:30:24.650Z,7.63
2022-10-14T03:32:27.303Z,7.55
2022-10-14T03:34:29.910Z,7.82
2022-10-14T03:36:32.632Z,7.25
2022-10-14T03:38:35.279Z,8.23
2022-10-14T03:40:37.886Z,8.13
2022-10-14T03:42:42.392Z,8.10
2022-10-14T03:44:46.192Z,8.10
2022-10-14T03:46:48.884Z,6.97
2022-10-14T03:48:51.508Z,7.63
2022-10-14T03:50:54.249Z,7.65
2022-10-14T03:52:56.877Z,9.07
2022-10-14T03:54:59.557Z,9.48
2022-10-14T03:57:02.192Z,8.05
2022-10-14T03:59:06.226Z,8.43
2022-10-14T04:01:08.869Z,9.15
2022-10-14T04:03:11.506Z,8.82
2022-10-14T04:05:14.505Z,8.45
2022-10-14T04:07:17.108Z,8.73
2022-10-14T04:09:19.729Z,9.85
2022-10-14T04:11:22.395Z,9.50
2022-10-14T04:13:25.756Z,10.27
2022-10-14T04:15:29.750Z,8.95
2022-10-14T04:17:33.424Z,10.10
2022-10-14T04:19:36.039Z,9.52
2022-10-14T04:21:38.666Z,9.20
2022-10-14T04:23:41.419Z,9.10
2022-10-14T04:25:44.123Z,8.43
2022-10-14T04:27:46.982Z,9.65
2022-10-14T04:29:49.650Z,9.40
2022-10-14T04:31:53.697Z,11.07
2022-10-14T04:33:56.278Z,10.90
2022-10-14T04:35:59.953Z,10.60
2022-10-14T04:38:02.628Z,11.18
2022-10-14T04:40:06.348Z,10.10
2022-10-14T04:42:08.969Z,11.25
2022-10-14T04:44:11.774Z,11.43
2022-10-14T04:46:14.399Z,10.95
2022-10-14T04:48:18.558Z,11.43
2022-10-14T04:50:22.051Z,11.63
2022-10-14T04:52:24.786Z,11.75
2022-10-14T04:54:27.887Z,11.55
2022-10-14T04:56:30.523Z,13.55
2022-10-14T04:58:33.180Z,11.80
2022-10-14T05:00:35.757Z,12.18
2022-10-14T05:02:38.603Z,12.63
2022-10-14T05:04:42.610Z,11.65
2022-10-14T05:06:45.264Z,12.63
2022-10-14T05:08:47.908Z,11.68
2022-10-14T05:10:50.642Z,13.43
2022-10-14T05:12:53.292Z,12.55
2022-10-14T05:14:56.025Z,11.88
2022-10-14T05:16:58.680Z,12.77
2022-10-14T05:19:01.693Z,13.07
2022-10-14T05:21:05.861Z,12.05
2022-10-14T05:23:08.479Z,11.80
2022-10-14T05:25:11.085Z,12.00
2022-10-14T05:27:13.675Z,11.75
2022-10-14T05:29:16.516Z,11.88
2022-10-14T05:31:19.191Z,12.43
2022-10-14T05:33:21.842Z,11.82
2022-10-14T05:35:46.377Z,12.40
2022-10-14T05:37:48.530Z,12.75
2022-10-14T05:39:51.198Z,14.13
2022-10-14T05:41:53.875Z,12.05
2022-10-14T05:43:56.440Z,12.93
2022-10-14T05:45:59.093Z,13.15
2022-10-14T05:48:01.708Z,12.52
2022-10-14T05:50:04.617Z,13.05
2022-10-14T05:52:07.254Z,12.55
2022-10-14T05:54:12.263Z,12.43
2022-10-14T05:56:15.121Z,11.70
2022-10-14T05:58:17.795Z,12.63
2022-10-14T06:00:25.430Z,12.00
2022-10-14T06:02:28.640Z,11.68
2022-10-14T06:04:31.335Z,13.35
2022-10-14T06:06:33.937Z,12.02
2022-10-14T06:08:36.539Z,12.43
2022-10-14T06:10:40.526Z,13.10
2022-10-14T06:12:43.298Z,10.90
2022-10-14T06:14:45.970Z,11.20
2022-10-14T06:16:50.964Z,11.95
2022-10-14T06:18:54.573Z,10.88
2022-10-14T06:20:57.390Z,11.52
2022-10-14T06:23:00.106Z,10.60
2022-10-14T06:25:04.430Z,11.13
2022-10-14T06:27:08.675Z,11.18
2022-10-14T06:29:12.226Z,11.63
2022-10-14T06:31:14.865Z,11.27
2022-10-14T06:33:17.528Z,11.25
2022-10-14T06:35:20.137Z,10.50
2022-10-14T06:37:22.772Z,11.43
2022-10-14T06:39:25.410Z,11.32
2022-10-14T06:41:28.168Z,10.70
2022-10-14T06:43:32.169Z,10.50
2022-10-14T06:45:34.817Z,11.18
2022-10-14T06:47:37.507Z,9.80
2022-10-14T06:49:40.178Z,10.88
2022-10-14T06:51:42.935Z,11.07
2022-10-14T06:53:45.551Z,11.77
2022-10-14T06:55:48.173Z,11.27
2022-10-14T06:57:50.783Z,10.73
2022-10-14T06:59:54.810Z,11.23
2022-10-14T07:01:58.384Z,10.57
2022-10-14T07:04:01.050Z,9.85
2022-10-14T07:06:04.701Z,9.77
2022-10-14T07:08:09.087Z,9.07
2022-10-14T07:10:15.489Z,8.85
2022-10-14T07:12:18.336Z,10.15
2022-10-14T07:14:21.174Z,9.05
2022-10-14T07:16:25.280Z,9.45
2022-10-14T07:18:28.004Z,9.13
2022-10-14T07:20:30.623Z,8.57
2022-10-14T07:22:38.690Z,8.73
2022-10-14T07:24:41.926Z,7.97
2022-10-14T07:26:44.619Z,8.13
2022-10-14T07:28:47.268Z,8.23
2022-10-14T07:30:57.945Z,8.30
2022-10-14T07:33:01.907Z,7.38
2022-10-14T07:35:05.006Z,9.15
2022-10-14T07:37:07.614Z,8.77
2022-10-14T07:39:10.728Z,8.88
2022-10-14T07:41:18.154Z,9.73
2022-10-14T07:43:20.755Z,8.20
2022-10-14T07:45:23.465Z,9.82
2022-10-14T07:47:26.119Z,9.10
2022-10-14T07:49:30.232Z,9.07
2022-10-14T07:51:34.144Z,8.40
2022-10-14T07:53:37.743Z,8.38
2022-10-14T07:55:51.898Z,7.15
2022-10-14T07:57:54.526Z,6.43
2022-10-14T07:59:57.404Z,7.35
2022-10-14T08:02:00.289Z,6.38
2022-10-14T08:04:03.621Z,6.35
2022-10-14T08:06:08.243Z,6.57
2022-10-14T08:08:11.106Z,6.20
2022-10-14T08:10:13.926Z,6.43
2022-10-14T08:12:16.627Z,5.82
2022-10-14T08:14:19.255Z,5.70
2022-10-14T08:16:24.097Z,5.90
2022-10-14T08:18:27.530Z,6.22
2022-10-14T08:20:30.154Z,5.75
2022-10-14T08:22:34.126Z,5.43
2022-10-14T08:24:36.762Z,5.93
2022-10-14T08:26:41.160Z,6.32
2022-10-14T08:28:43.820Z,6.63
2022-10-14T08:30:48.068Z,5.68
2022-10-14T08:32:50.730Z,6.57
2022-10-14T08:34:55.902Z,6.15
2022-10-14T08:36:58.487Z,5.53
2022-10-14T08:39:02.621Z,6.22
2022-10-14T08:41:17.330Z,5.72
2022-10-14T08:43:26.925Z,5.15
2022-10-14T08:45:34.579Z,5.40
2022-10-14T08:47:41.240Z,6.50
2022-10-14T08:49:53.935Z,5.35
2022-10-14T08:52:01.340Z,5.60
2022-10-14T08:54:12.082Z,5.75
2022-10-14T08:56:15.947Z,5.32
2022-10-14T09:00:35.340Z,5.72
2022-10-14T09:02:45.236Z,6.07
2022-10-14T09:04:48.064Z,5.60
2022-10-14T09:06:52.097Z,5.13
2022-10-14T09:08:59.365Z,5.07
2022-10-14T09:11:03.569Z,5.45
2022-10-14T09:13:12.230Z,5.13
2022-10-14T09:15:22.272Z,5.20
2022-10-14T09:17:29.369Z,5.32
2022-10-14T09:19:39.580Z,5.20
2022-10-14T09:21:52.591Z,4.75
2022-10-14T09:24:00.777Z,4.88
2022-10-14T09:26:09.911Z,4.55
2022-10-14T09:28:12.808Z,4.68
2022-10-14T09:30:17.863Z,4.68
2022-10-14T09:32:28.747Z,4.80
2022-10-14T09:34:35.621Z,5.18
2022-10-14T09:36:38.325Z,4.57
2022-10-14T09:38:41.149Z,4.22
2022-10-14T09:40:45.429Z,4.78
2022-10-14T09:42:55.269Z,4.22
2022-10-14T09:47:14.119Z,4.82
2022-10-14T09:49:19.722Z,4.65
2022-10-14T09:51:26.507Z,4.82
2022-10-14T09:53:31.997Z,4.80
2022-10-14T09:55:34.745Z,4.97
2022-10-14T09:57:37.413Z,5.13
2022-10-14T09:59:53.743Z,4.68
2022-10-14T10:01:59.283Z,4.75
2022-10-14T10:04:27.303Z,4.50
2022-10-14T10:06:29.899Z,4.35
2022-10-14T10:08:33.348Z,4.63
2022-10-14T10:10:36.016Z,4.93
2022-10-14T10:12:41.615Z,4.47
2022-10-14T10:14:57.825Z,4.50
2022-10-14T10:17:18.008Z,4.40
2022-10-14T10:19:27.826Z,4.75
2022-10-14T10:21:31.413Z,4.63
2022-10-14T10:23:36.288Z,4.40
2022-10-14T10:25:38.984Z,4.50
2022-10-14T10:27:43.449Z,3.85
2022-10-14T10:29:47.479Z,4.82
2022-10-14T10:32:02.253Z,4.03
2022-10-14T10:34:19.018Z,3.72
2022-10-14T10:36:29.014Z,4.63
2022-10-14T10:38:35.702Z,3.55
2022-10-14T10:40:41.516Z,4.15
2022-10-14T10:42:55.347Z,3.80
2022-10-14T10:45:08.100Z,4.80
2022-10-14T10:47:27.094Z,3.80
2022-10-14T10:49:50.164Z,4.15
2022-10-14T10:51:56.471Z,4.55
2022-10-14T10:54:08.538Z,4.60
2022-10-14T10:56:20.267Z,3.78
2022-10-14T10:58:36.082Z,3.38
2022-10-14T11:00:49.585Z,3.28
2022-10-14T11:03:00.235Z,3.80
2022-10-14T11:05:11.288Z,4.20
2022-10-14T11:07:42.082Z,3.40
2022-10-14T11:10:20.845Z,3.35
2022-10-14T11:12:28.382Z,2.95
2022-10-14T11:14:48.855Z,3.03
2022-10-14T11:17:02.294Z,2.92
2022-10-14T11:19:13.864Z,2.92
2022-10-14T11:21:26.718Z,2.33
2022-10-14T11:23:49.137Z,2.90
2022-10-14T11:25:56.456Z,2.90
2022-10-14T11:28:05.943Z,3.15
2022-10-14T11:30:19.152Z,2.90
2022-10-14T11:32:38.601Z,2.70
2022-10-14T11:34:44.423Z,3.00
2022-10-14T11:37:00.619Z,2.83
2022-10-14T11:39:19.122Z,2.90
2022-10-14T11:41:33.039Z,2.78
2022-10-14T11:43:44.543Z,2.90
2022-10-14T11:45:53.299Z,3.70
2022-10-14T11:48:05.745Z,3.47
2022-10-14T11:52:24.616Z,2.95
2022-10-14T11:54:32.100Z,2.97
2022-10-14T11:56:47.991Z,3.30
2022-10-14T11:58:52.740Z,2.70
2022-10-14T12:01:15.986Z,2.70
2022-10-14T12:03:27.667Z,2.85
2022-10-14T12:05:39.539Z,2.75
2022-10-14T12:07:47.525Z,2.88
2022-10-14T12:09:59.020Z,2.35
2022-10-14T12:12:05.803Z,2.78
2022-10-14T12:14:14.276Z,2.28
2022-10-14T12:16:19.953Z,2.50
2022-10-14T12:18:23.952Z,2.65
2022-10-14T12:20:35.032Z,2.65
2022-10-14T12:22:40.343Z,2.58
2022-10-14T12:24:47.495Z,2.40
2022-10-14T12:26:53.271Z,2.00
2022-10-14T12:28:57.764Z,2.60
2022-10-14T12:31:23.038Z,2.00
2022-10-14T12:33:27.013Z,2.20
2022-10-14T12:36:00.917Z,4.35
2022-10-14T12:38:04.973Z,1.60
2022-10-14T12:40:26.533Z,2.13
2022-10-14T12:42:30.604Z,1.67
2022-10-14T12:44:37.424Z,1.80
2022-10-14T12:46:44.825Z,2.10
2022-10-14T12:48:52.567Z,2.00
2022-10-14T12:51:07.426Z,1.88
2022-10-14T12:53:22.316Z,1.70
2022-10-14T12:55:27.337Z,1.75
2022-10-14T12:57:36.199Z,1.65
2022-10-14T12:59:41.511Z,1.63
2022-10-14T13:01:44.940Z,1.73
2022-10-14T13:03:57.560Z,1.83
2022-10-14T13:06:38.694Z,1.67
2022-10-14T13:08:41.428Z,1.83
2022-10-14T13:10:48.399Z,1.60
2022-10-14T13:12:51.083Z,1.65
2022-10-14T13:14:59.222Z,1.40
2022-10-14T13:17:02.675Z,1.50
2022-10-14T13:19:27.050Z,1.73
2022-10-14T13:21:51.517Z,1.50
2022-10-14T13:23:55.561Z,1.60
2022-10-14T13:26:10.365Z,1.50
2022-10-14T13:28:25.010Z,1.40
2022-10-14T13:30:36.443Z,1.65
2022-10-14T13:32:45.277Z,1.92
2022-10-14T13:34:58.463Z,1.55
2022-10-14T13:37:26.299Z,1.48
2022-10-14T13:39:29.037Z,1.58
2022-10-14T13:41:34.536Z,1.83
2022-10-14T13:43:42.207Z,1.50
2022-10-14T13:45:49.085Z,1.63
2022-10-14T13:47:52.351Z,1.42
2022-10-14T13:49:56.866Z,1.38
2022-10-14T13:52:04.370Z,1.30
2022-10-14T13:54:17.072Z,1.48
2022-10-14T13:56:24.135Z,1.33
2022-10-14T13:58:26.736Z,1.80
2022-10-14T14:00:40.670Z,1.30
2022-10-14T14:02:49.081Z,1.10
2022-10-14T14:04:58.323Z,1.30
2022-10-14T14:07:24.452Z,2.15
2022-10-14T14:09:26.688Z,1.67
2022-10-14T14:11:31.744Z,1.73
2022-10-14T14:13:38.765Z,1.52
2022-10-14T14:15:42.202Z,1.60
2022-10-14T14:17:44.862Z,1.42
2022-10-14T14:19:48.635Z,1.50
2022-10-14T14:21:52.742Z,1.42
2022-10-14T14:23:57.654Z,1.48
2022-10-14T14:26:18.346Z,1.52
2022-10-14T14:28:22.478Z,1.60
2022-10-14T14:30:29.870Z,1.40
2022-10-14T14:32:33.608Z,1.52
2022-10-14T14:34:38.451Z,1.70
2022-10-14T14:37:05.631Z,1.60
2022-10-14T14:39:06.333Z,1.58
2022-10-14T14:41:23.988Z,1.65
2022-10-14T14:43:31.313Z,2.03
2022-10-14T14:45:41.811Z,1.70
2022-10-14T14:47:45.656Z,1.67
2022-10-14T14:49:57.481Z,1.65
2022-10-14T14:52:14.720Z,1.40
2022-10-14T14:54:20.968Z,1.42
2022-10-14T14:56:27.568Z,1.58
2022-10-14T14:58:34.876Z,1.52
2022-10-14T15:00:37.520Z,1.63
2022-10-14T15:02:40.279Z,1.52
2022-10-14T15:04:43.378Z,1.13
2022-10-14T15:06:51.925Z,1.15
2022-10-14T15:08:57.372Z,1.30
2022-10-14T15:11:02.338Z,1.30
2022-10-14T15:13:05.069Z,1.20
2022-10-14T15:15:26.653Z,1.20
2022-10-14T15:17:32.992Z,1.85
2022-10-14T15:19:38.763Z,1.42
2022-10-14T15:21:41.795Z,1.42
2022-10-14T15:23:58.429Z,1.50
2022-10-14T15:26:02.504Z,1.80
2022-10-14T15:28:05.271Z,1.20
2022-10-14T15:30:18.881Z,1.17
2022-10-14T15:32:21.846Z,1.30
2022-10-14T15:34:24.771Z,1.25
2022-10-14T15:36:29.052Z,1.33
2022-10-14T15:40:34.748Z,1.48
2022-10-14T15:42:38.753Z,1.83
2022-10-14T15:44:41.402Z,1.73
2022-10-14T15:47:03.580Z,1.30
2022-10-14T15:49:16.276Z,1.30
2022-10-14T15:51:20.614Z,1.90
2022-10-14T15:53:23.235Z,2.05
2022-10-14T15:55:27.818Z,1.90
2022-10-14T15:57:30.508Z,1.50
2022-10-14T15:59:34.485Z,2.45
2022-10-14T16:01:39.839Z,1.60
2022-10-14T16:03:42.882Z,1.60
2022-10-14T16:05:45.646Z,1.35
2022-10-14T16:07:48.461Z,1.55
2022-10-14T16:09:51.129Z,1.65
2022-10-14T16:11:57.935Z,1.50
2022-10-14T16:14:00.538Z,1.60
2022-10-14T16:16:10.258Z,1.48
2022-10-14T16:18:12.891Z,1.73
2022-10-14T16:20:15.744Z,1.52
2022-10-14T16:22:18.322Z,1.88
2022-10-14T16:24:25.323Z,1.85
2022-10-14T16:26:29.162Z,1.58
2022-10-14T16:28:31.760Z,1.33
2022-10-14T16:30:35.605Z,1.60
2022-10-14T16:32:39.551Z,1.30
2022-10-14T16:34:42.195Z,1.48
2022-10-14T16:36:44.969Z,1.60
2022-10-14T16:38:47.930Z,1.70
2022-10-14T16:40:55.420Z,1.55
2022-10-14T16:42:57.997Z,1.30
2022-10-14T16:45:00.596Z,1.60
2022-10-14T16:47:19.247Z,1.20
2022-10-14T16:49:23.531Z,1.50
2022-10-14T16:51:26.136Z,1.63
2022-10-14T16:53:41.743Z,1.35
2022-10-14T16:55:44.353Z,1.65
2022-10-14T16:57:47.267Z,2.00
2022-10-14T16:59:49.897Z,1.75
2022-10-14T17:01:52.985Z,1.77
2022-10-14T17:03:56.465Z,1.92
2022-10-14T17:06:00.437Z,1.85
2022-10-14T17:08:03.022Z,1.60
2022-10-14T17:10:06.722Z,1.80
2022-10-14T17:12:13.735Z,1.90
2022-10-14T17:14:19.075Z,1.73
2022-10-14T17:16:21.908Z,2.72
2022-10-14T17:18:25.733Z,2.10
2022-10-14T17:20:28.591Z,2.05
2022-10-14T17:22:32.534Z,2.10
2022-10-14T17:24:35.167Z,1.80
2022-10-14T17:26:37.839Z,1.90
2022-10-14T17:28:41.310Z,1.70
2022-10-14T17:30:43.984Z,1.73
2022-10-14T17:32:46.571Z,2.00
2022-10-14T17:34:53.243Z,1.67
2022-10-14T17:36:56.269Z,1.85
2022-10-14T17:39:01.137Z,1.80
2022-10-14T17:41:04.606Z,1.95
2022-10-14T17:43:07.199Z,1.92
2022-10-14T17:45:11.137Z,1.73
2022-10-14T17:47:13.797Z,2.38
2022-10-14T17:49:16.499Z,2.50
2022-10-14T17:51:23.404Z,2.80
2022-10-14T17:53:26.155Z,2.63
2022-10-14T17:55:30.461Z,2.70
2022-10-14T17:57:33.063Z,2.60
2022-10-14T17:59:35.803Z,2.80
2022-10-14T18:04:03.113Z,2.47
2022-10-14T18:06:14.353Z,2.83
2022-10-14T18:08:16.978Z,2.85
2022-10-14T18:10:19.765Z,2.85
2022-10-14T18:12:24.099Z,2.58
2022-10-14T18:14:26.824Z,2.80
2022-10-14T18:16:33.449Z,3.05
2022-10-14T18:18:36.533Z,3.00
2022-10-14T18:20:39.511Z,2.50
2022-10-14T18:22:42.213Z,2.80
2022-10-14T18:24:45.021Z,2.55
2022-10-14T18:26:50.404Z,3.08
2022-10-14T18:28:55.941Z,2.67
2022-10-14T18:31:03.669Z,2.25
2022-10-14T18:33:06.381Z,2.33
2022-10-14T18:35:09.529Z,2.47
2022-10-14T18:37:12.137Z,2.63
2022-10-14T18:39:15.438Z,2.50
2022-10-14T18:41:18.307Z,2.00
2022-10-14T18:43:20.967Z,2.03
2022-10-14T18:45:24.939Z,2.50
2022-10-14T18:47:28.464Z,2.35
2022-10-14T18:49:31.083Z,1.75
2022-10-14T18:51:36.578Z,1.75
2022-10-14T18:53:40.690Z,1.70
2022-10-14T18:55:44.560Z,2.17
2022-10-14T18:57:47.161Z,2.33
2022-10-14T18:59:50.963Z,1.70
2022-10-14T19:01:55.318Z,1.50
2022-10-14T19:03:58.377Z,1.60
2022-10-14T19:06:01.490Z,1.80
2022-10-14T19:08:04.879Z,1.90
2022-10-14T19:10:08.933Z,1.80
2022-10-14T19:12:25.642Z,1.80
2022-10-14T19:14:31.660Z,2.00
2022-10-14T19:16:36.028Z,1.90
2022-10-14T19:18:40.053Z,2.00
2022-10-14T19:20:42.900Z,2.10
2022-10-14T19:22:45.594Z,1.80
2022-10-14T19:24:48.198Z,1.95
2022-10-14T19:26:50.903Z,2.10
2022-10-14T19:28:54.363Z,1.88
2022-10-14T19:30:57.078Z,1.77
2022-10-14T19:32:59.669Z,2.20
2022-10-14T19:35:03.660Z,1.88
2022-10-14T19:37:06.288Z,1.90
2022-10-14T19:39:12.138Z,2.55
2022-10-14T19:41:14.761Z,1.90
2022-10-14T19:43:17.335Z,2.05
2022-10-14T19:45:19.965Z,1.95
2022-10-14T19:47:22.829Z,1.80
2022-10-14T19:49:25.685Z,2.15
2022-10-14T19:51:30.511Z,2.20
2022-10-14T19:53:33.243Z,2.03
2022-10-14T19:55:35.936Z,2.35
2022-10-14T19:57:38.550Z,2.75
2022-10-14T19:59:41.167Z,2.20
2022-10-14T20:01:43.773Z,1.95
2022-10-14T20:03:46.409Z,2.53
2022-10-14T20:05:49.014Z,2.10
2022-10-14T20:07:54.444Z,1.90
2022-10-14T20:09:59.265Z,1.95
2022-10-14T20:12:05.442Z,1.70
2022-10-14T20:14:08.141Z,1.88
2022-10-14T20:16:12.432Z,1.95
2022-10-14T20:18:17.900Z,1.50
2022-10-14T20:20:20.498Z,1.77
2022-10-14T20:22:23.398Z,2.00
2022-10-14T20:24:27.523Z,2.55
2022-10-14T20:26:30.690Z,2.22
2022-10-14T20:28:35.935Z,2.08
2022-10-14T20:30:39.662Z,2.30
2022-10-14T20:32:42.264Z,2.40
2022-10-14T20:34:44.824Z,2.25
2022-10-14T20:36:47.415Z,2.13
2022-10-14T20:38:50.626Z,2.60
2022-10-14T20:40:54.681Z,2.55
2022-10-14T20:42:57.788Z,2.40
2022-10-14T20:45:00.593Z,2.60
2022-10-14T20:47:03.175Z,2.38
2022-10-14T20:49:05.778Z,2.15
2022-10-14T20:51:09.586Z,2.22
2022-10-14T20:53:12.220Z,2.28
2022-10-14T20:55:15.159Z,2.42
2022-10-14T20:57:19.108Z,2.33
2022-10-14T20:59:21.734Z,1.92
2022-10-14T21:01:25.329Z,2.50
2022-10-14T21:03:27.931Z,2.95
2022-10-14T21:05:30.577Z,2.92
2022-10-14T21:07:33.146Z,2.35
2022-10-14T21:09:35.764Z,2.05
2022-10-14T21:11:39.312Z,2.38
2022-10-14T21:13:45.016Z,2.50
2022-10-14T21:15:47.623Z,2.03
2022-10-14T21:17:50.988Z,2.40
2022-10-14T21:19:53.571Z,1.98
2022-10-14T21:21:56.537Z,3.13
2022-10-14T21:23:59.999Z,2.47
2022-10-14T21:26:02.605Z,2.00
2022-10-14T21:28:05.376Z,2.60
2022-10-14T21:30:11.258Z,2.38
2022-10-14T21:32:13.878Z,2.13
2022-10-14T21:34:16.790Z,1.85
2022-10-14T21:36:19.394Z,2.20
2022-10-14T21:38:21.942Z,2.92
2022-10-14T21:40:24.587Z,2.33
2022-10-14T21:42:27.190Z,2.92
2022-10-14T21:44:29.764Z,2.53
2022-10-14T21:46:34.295Z,2.45
2022-10-14T21:48:36.894Z,2.63
2022-10-14T21:50:39.527Z,3.10
2022-10-14T21:52:42.123Z,2.90
2022-10-14T21:54:44.764Z,2.80
2022-10-14T21:56:47.435Z,2.58
2022-10-14T21:58:50.032Z,2.80
2022-10-14T22:00:52.787Z,2.83
2022-10-14T22:02:56.757Z,2.58
2022-10-14T22:04:59.413Z,2.70
2022-10-14T22:07:02.068Z,2.88
2022-10-14T22:09:07.379Z,2.72
2022-10-14T22:11:17.352Z,2.58
2022-10-14T22:13:19.979Z,2.22
2022-10-14T22:15:22.577Z,2.10
2022-10-14T22:17:25.604Z,2.08
2022-10-14T22:19:29.903Z,2.10
2022-10-14T22:21:35.017Z,2.40
2022-10-14T22:23:40.093Z,2.00
2022-10-14T22:25:42.843Z,2.00
2022-10-14T22:27:46.003Z,1.80
2022-10-14T22:29:48.572Z,1.60
2022-10-14T22:31:51.169Z,1.55
2022-10-14T22:33:53.904Z,1.52
2022-10-14T22:36:06.543Z,1.50
2022-10-14T22:38:09.158Z,1.50
2022-10-14T22:40:12.528Z,1.45
2022-10-14T22:42:15.198Z,1.70
2022-10-14T22:44:17.997Z,1.20
2022-10-14T22:46:22.364Z,1.42
2022-10-14T22:48:25.009Z,1.23
2022-10-14T22:50:27.646Z,1.42
2022-10-14T22:52:31.612Z,1.45
2022-10-14T22:54:34.191Z,1.20
2022-10-14T22:56:36.897Z,1.30
2022-10-14T22:58:39.535Z,1.15
2022-10-14T23:00:42.357Z,1.10
2022-10-14T23:02:46.479Z,1.00
2022-10-14T23:04:51.181Z,1.27
2022-10-14T23:06:53.862Z,1.13
2022-10-14T23:08:59.829Z,1.00
2022-10-14T23:11:03.378Z,1.05
2022-10-14T23:13:07.231Z,0.73
2022-10-14T23:15:10.718Z,1.00
2022-10-14T23:17:13.292Z,1.00
2022-10-14T23:19:15.891Z,1.10
2022-10-14T23:21:21.473Z,0.90
2022-10-14T23:23:24.128Z,0.80
2022-10-14T23:25:28.120Z,1.00
2022-10-14T23:27:32.934Z,1.00
2022-10-14T23:29:38.220Z,0.82
2022-10-14T23:31:41.806Z,0.90
2022-10-14T23:33:45.034Z,1.00
2022-10-14T23:35:47.780Z,0.85
2022-10-14T23:37:50.335Z,0.80
2022-10-14T23:39:52.934Z,0.93
2022-10-14T23:41:56.855Z,0.90
2022-10-14T23:43:59.507Z,1.00
2022-10-14T23:46:02.397Z,0.77
2022-10-14T23:48:05.422Z,0.90
2022-10-14T23:50:09.025Z,0.70
2022-10-14T23:52:11.633Z,0.90
2022-10-14T23:54:14.198Z,0.70
2022-10-14T23:56:16.852Z,0.70
2022-10-14T23:58:20.955Z,0.70
